createdAt,value
2023-03-22T00:00:19.127Z,5.92
2023-03-22T00:02:47.415Z,5.85
2023-03-22T00:05:15.721Z,5.85
2023-03-22T00:08:07.219Z,5.81
2023-03-22T00:10:37.277Z,5.78
2023-03-22T00:13:06.711Z,5.77
2023-03-22T00:15:35.153Z,5.72
2023-03-22T00:18:05.992Z,5.69
2023-03-22T00:20:38.635Z,5.66
2023-03-22T00:23:09.262Z,5.66
2023-03-22T00:25:38.002Z,5.67
2023-03-22T00:28:06.385Z,5.68
2023-03-22T00:30:34.569Z,5.68
2023-03-22T00:33:02.941Z,5.66
2023-03-22T00:35:31.864Z,5.60
2023-03-22T00:38:06.237Z,5.54
2023-03-22T00:40:35.466Z,5.54
2023-03-22T00:43:03.953Z,5.53
2023-03-22T00:45:32.291Z,5.52
2023-03-22T00:48:01.397Z,5.51
2023-03-22T00:50:30.369Z,5.48
2023-03-22T00:52:58.919Z,5.45
2023-03-22T00:55:28.510Z,5.47
2023-03-22T00:57:57.320Z,5.48
2023-03-22T01:00:25.745Z,5.49
2023-03-22T01:02:59.870Z,5.47
2023-03-22T01:05:28.581Z,5.46
2023-03-22T01:07:57.024Z,5.44
2023-03-22T01:10:30.528Z,5.44
2023-03-22T01:12:59.187Z,5.42
2023-03-22T01:15:30.768Z,5.40
2023-03-22T01:17:59.217Z,5.39
2023-03-22T01:20:28.218Z,5.36
2023-03-22T01:22:56.500Z,5.32
2023-03-22T01:25:24.781Z,5.28
2023-03-22T01:27:54.018Z,5.27
2023-03-22T01:30:22.370Z,5.26
2023-03-22T01:32:51.668Z,5.26
2023-03-22T01:35:20.054Z,5.24
2023-03-22T01:37:48.248Z,5.23
2023-03-22T01:40:17.535Z,5.23
2023-03-22T01:42:46.126Z,5.24
2023-03-22T01:45:30.476Z,5.25
2023-03-22T01:48:01.942Z,5.24
2023-03-22T01:50:32.663Z,5.25
2023-03-22T01:53:01.252Z,5.26
2023-03-22T01:55:34.254Z,5.26
2023-03-22T01:58:18.227Z,5.27
2023-03-22T02:00:53.419Z,5.27
2023-03-22T02:03:38.584Z,5.27
2023-03-22T02:06:08.028Z,5.26
2023-03-22T02:08:36.275Z,5.27
2023-03-22T02:11:14.851Z,5.28
2023-03-22T02:13:52.163Z,5.30
2023-03-22T02:17:16.122Z,5.32
2023-03-22T02:20:10.939Z,5.33
2023-03-22T02:23:13.856Z,5.32
2023-03-22T02:26:03.756Z,5.31
2023-03-22T02:28:51.199Z,5.31
2023-03-22T02:31:47.275Z,5.32
2023-03-22T02:34:23.961Z,5.32
2023-03-22T02:37:03.497Z,5.34
2023-03-22T02:39:41.295Z,5.32
2023-03-22T02:42:53.171Z,5.31
2023-03-22T02:45:36.735Z,5.29
2023-03-22T02:48:12.748Z,5.29
2023-03-22T02:50:48.199Z,5.31
2023-03-22T02:53:19.656Z,5.32
2023-03-22T02:56:26.750Z,5.30
2023-03-22T02:58:56.652Z,5.29
2023-03-22T03:01:29.360Z,5.29
2023-03-22T03:04:01.146Z,5.30
2023-03-22T03:06:31.248Z,5.30
2023-03-22T03:09:02.964Z,5.30
2023-03-22T03:11:32.393Z,5.29
2023-03-22T03:14:01.055Z,5.27
2023-03-22T03:16:30.898Z,5.25
2023-03-22T03:19:03.769Z,5.25
2023-03-22T03:21:42.679Z,5.24
2023-03-22T03:24:14.055Z,5.23
2023-03-22T03:26:57.053Z,5.22
2023-03-22T03:29:41.072Z,5.20
2023-03-22T03:32:38.547Z,5.17
2023-03-22T03:35:23.169Z,5.17
2023-03-22T03:37:54.034Z,5.15
2023-03-22T03:40:47.038Z,5.11
2023-03-22T03:43:16.791Z,5.06
2023-03-22T03:45:47.559Z,4.92
2023-03-22T03:48:19.353Z,4.85
2023-03-22T03:50:50.482Z,4.85
2023-03-22T03:53:19.548Z,4.86
2023-03-22T03:55:47.722Z,4.85
2023-03-22T03:58:16.941Z,4.88
2023-03-22T04:00:46.490Z,4.88
2023-03-22T04:03:50.846Z,4.94
2023-03-22T04:06:40.293Z,4.95
2023-03-22T04:09:12.111Z,4.97
2023-03-22T04:11:44.405Z,4.99
2023-03-22T04:14:14.154Z,4.96
2023-03-22T04:16:42.675Z,4.91
2023-03-22T04:19:14.395Z,4.86
2023-03-22T04:21:43.694Z,4.88
2023-03-22T04:24:12.900Z,4.89
2023-03-22T04:26:43.122Z,4.93
2023-03-22T04:29:23.169Z,4.94
2023-03-22T04:31:57.384Z,4.95
2023-03-22T04:34:31.709Z,4.98
2023-03-22T04:37:08.239Z,5.02
2023-03-22T04:39:49.870Z,5.10
2023-03-22T04:42:34.673Z,5.15
2023-03-22T04:45:16.814Z,5.17
2023-03-22T04:47:47.917Z,5.14
2023-03-22T04:50:17.171Z,5.13
2023-03-22T04:52:50.522Z,5.14
2023-03-22T04:55:21.312Z,5.18
2023-03-22T04:57:51.293Z,5.32
2023-03-22T05:00:21.892Z,5.48
2023-03-22T05:02:52.277Z,5.60
2023-03-22T05:05:51.012Z,5.80
2023-03-22T05:08:21.387Z,5.95
2023-03-22T05:10:52.365Z,6.10
2023-03-22T05:13:21.733Z,6.26
2023-03-22T05:15:52.049Z,6.42
2023-03-22T05:18:27.853Z,6.55
2023-03-22T05:20:57.829Z,6.80
2023-03-22T05:23:28.468Z,7.01
2023-03-22T05:25:58.434Z,7.30
2023-03-22T05:28:32.044Z,7.66
2023-03-22T05:31:18.159Z,8.04
2023-03-22T05:34:04.271Z,8.36
2023-03-22T05:36:36.606Z,8.39
2023-03-22T05:39:18.122Z,8.47
2023-03-22T05:41:47.324Z,8.54
2023-03-22T05:44:15.964Z,8.63
2023-03-22T05:46:53.825Z,8.70
2023-03-22T05:49:49.304Z,8.64
2023-03-22T05:52:22.745Z,8.58
2023-03-22T05:55:06.919Z,8.43
2023-03-22T05:57:35.605Z,8.32
2023-03-22T06:00:13.365Z,8.29
2023-03-22T06:02:44.441Z,8.40
2023-03-22T06:05:16.871Z,8.50
2023-03-22T06:07:45.355Z,8.52
2023-03-22T06:10:18.443Z,8.65
2023-03-22T06:12:55.125Z,8.73
2023-03-22T06:15:28.144Z,9.01
2023-03-22T06:18:08.611Z,9.45
2023-03-22T06:20:40.902Z,9.65
2023-03-22T06:23:18.210Z,9.87
2023-03-22T06:25:47.423Z,10.02
2023-03-22T06:28:17.002Z,10.22
2023-03-22T06:30:51.223Z,10.55
2023-03-22T06:33:37.564Z,10.88
2023-03-22T06:36:23.630Z,11.23
2023-03-22T06:39:05.480Z,11.37
2023-03-22T06:41:34.602Z,11.70
2023-03-22T06:44:03.145Z,12.30
2023-03-22T06:46:49.910Z,12.87
2023-03-22T06:49:38.240Z,13.46
2023-03-22T06:52:06.722Z,13.92
2023-03-22T06:54:36.850Z,14.47
2023-03-22T06:57:05.432Z,14.74
2023-03-22T06:59:35.055Z,14.90
2023-03-22T07:02:03.945Z,15.11
2023-03-22T07:04:33.336Z,15.27
2023-03-22T07:07:02.349Z,15.25
2023-03-22T07:09:31.959Z,15.31
2023-03-22T07:12:01.677Z,15.37
2023-03-22T07:14:31.097Z,15.53
2023-03-22T07:17:27.616Z,15.89
2023-03-22T07:19:57.320Z,16.31
2023-03-22T07:22:25.911Z,16.24
2023-03-22T07:25:01.964Z,16.12
2023-03-22T07:27:51.764Z,15.94
2023-03-22T07:30:22.749Z,16.00
2023-03-22T07:32:51.313Z,16.00
2023-03-22T07:35:19.661Z,16.00
2023-03-22T07:37:49.103Z,16.09
2023-03-22T07:40:26.154Z,16.05
2023-03-22T07:42:56.041Z,16.04
2023-03-22T07:45:43.989Z,15.78
2023-03-22T07:48:54.033Z,15.65
2023-03-22T07:51:42.365Z,15.85
2023-03-22T07:54:14.029Z,16.02
2023-03-22T07:56:48.238Z,16.02
2023-03-22T07:59:18.024Z,16.03
2023-03-22T08:01:46.493Z,16.16
2023-03-22T08:04:32.120Z,16.36
2023-03-22T08:07:05.922Z,16.46
2023-03-22T08:09:37.830Z,16.34
2023-03-22T08:12:07.499Z,16.66
2023-03-22T08:20:20.160Z,17.94
2023-03-22T08:22:55.493Z,18.84
2023-03-22T08:25:44.013Z,19.24
2023-03-22T08:28:13.417Z,19.20
2023-03-22T08:30:43.136Z,19.23
2023-03-22T08:33:11.370Z,19.49
2023-03-22T08:35:40.141Z,19.67
2023-03-22T08:38:09.321Z,19.84
2023-03-22T08:40:46.217Z,19.97
2023-03-22T08:43:16.214Z,19.94
2023-03-22T08:45:47.810Z,20.06
2023-03-22T08:48:19.039Z,20.56
2023-03-22T08:51:07.649Z,20.84
2023-03-22T08:53:50.361Z,20.58
2023-03-22T08:56:44.841Z,20.90
2023-03-22T08:59:34.728Z,21.10
2023-03-22T09:02:27.621Z,20.49
2023-03-22T09:04:56.854Z,19.69
2023-03-22T09:07:26.060Z,19.05
2023-03-22T09:10:07.758Z,18.79
2023-03-22T09:12:38.694Z,18.65
2023-03-22T09:15:07.826Z,18.85
2023-03-22T09:17:38.032Z,18.88
2023-03-22T09:20:15.155Z,18.79
2023-03-22T09:22:44.862Z,18.60
2023-03-22T09:25:14.648Z,18.51
2023-03-22T09:27:46.003Z,18.46
2023-03-22T09:30:14.285Z,18.43
2023-03-22T09:32:42.616Z,18.62
2023-03-22T09:35:12.058Z,18.61
2023-03-22T09:37:49.678Z,18.29
2023-03-22T09:40:18.099Z,18.25
2023-03-22T09:42:48.496Z,18.25
2023-03-22T09:45:21.084Z,18.41
2023-03-22T09:47:51.698Z,18.56
2023-03-22T09:50:22.328Z,18.71
2023-03-22T09:52:53.395Z,18.53
2023-03-22T09:55:22.662Z,18.29
2023-03-22T09:58:32.634Z,18.13
2023-03-22T10:01:05.490Z,17.88
2023-03-22T10:04:12.786Z,17.79
2023-03-22T10:06:43.443Z,17.55
2023-03-22T10:09:45.164Z,17.31
2023-03-22T10:12:18.915Z,17.21
2023-03-22T10:14:59.054Z,17.09
2023-03-22T10:17:28.273Z,16.87
2023-03-22T10:20:08.744Z,16.96
2023-03-22T10:22:42.154Z,17.04
2023-03-22T10:25:17.901Z,17.12
2023-03-22T10:27:47.287Z,17.11
2023-03-22T10:30:23.552Z,16.99
2023-03-22T10:32:57.814Z,16.83
2023-03-22T10:35:26.601Z,16.69
2023-03-22T10:37:56.171Z,16.44
2023-03-22T10:40:28.910Z,16.32
2023-03-22T10:43:00.907Z,16.30
2023-03-22T10:45:29.316Z,16.25
2023-03-22T10:48:00.309Z,16.23
2023-03-22T10:50:32.154Z,16.26
2023-03-22T10:53:30.484Z,16.29
2023-03-22T10:55:58.761Z,16.35
2023-03-22T10:58:34.339Z,16.39
2023-03-22T11:01:11.153Z,16.47
2023-03-22T11:03:41.886Z,16.46
2023-03-22T11:06:14.287Z,16.43
2023-03-22T11:08:45.212Z,16.53
2023-03-22T11:11:29.692Z,16.62
2023-03-22T11:14:17.520Z,16.70
2023-03-22T11:17:02.275Z,16.75
2023-03-22T11:19:36.749Z,16.73
2023-03-22T11:22:06.834Z,16.67
2023-03-22T11:24:35.408Z,16.66
2023-03-22T11:27:25.430Z,16.68
2023-03-22T11:29:58.587Z,16.46
2023-03-22T11:32:33.229Z,16.24
2023-03-22T11:35:13.973Z,16.18
2023-03-22T11:37:42.608Z,16.16
2023-03-22T11:40:15.795Z,16.09
2023-03-22T11:42:44.254Z,15.96
2023-03-22T11:45:23.969Z,15.86
2023-03-22T11:47:52.419Z,15.78
2023-03-22T11:50:29.292Z,15.76
2023-03-22T11:52:58.654Z,15.69
2023-03-22T11:55:27.162Z,15.68
2023-03-22T11:58:04.068Z,15.72
2023-03-22T12:00:37.795Z,15.73
2023-03-22T12:03:10.787Z,15.86
2023-03-22T12:40:52.591Z,16.47
2023-03-22T12:43:33.685Z,16.47
2023-03-22T12:46:09.322Z,16.46
2023-03-22T12:48:41.538Z,16.38
2023-03-22T12:51:12.338Z,16.34
2023-03-22T12:53:43.993Z,16.40
2023-03-22T12:56:14.205Z,16.45
2023-03-22T12:58:45.298Z,16.45
2023-03-22T13:01:31.793Z,16.37
2023-03-22T13:04:00.240Z,16.33
2023-03-22T13:06:35.063Z,16.32
2023-03-22T13:09:09.487Z,16.29
2023-03-22T13:11:42.707Z,16.26
2023-03-22T13:14:34.508Z,16.23
2023-03-22T13:17:03.991Z,16.17
2023-03-22T13:19:38.427Z,16.08
2023-03-22T13:22:19.090Z,15.95
2023-03-22T13:25:01.157Z,15.88
2023-03-22T13:27:38.153Z,15.74
2023-03-22T13:30:22.004Z,15.58
2023-03-22T13:32:57.351Z,15.49
2023-03-22T13:35:45.591Z,15.50
2023-03-22T13:38:24.589Z,15.51
2023-03-22T13:41:14.149Z,15.59
2023-03-22T13:43:47.241Z,15.63
2023-03-22T13:46:20.041Z,15.66
2023-03-22T13:49:00.736Z,15.67
2023-03-22T13:51:32.791Z,15.55
2023-03-22T13:54:19.313Z,15.43
2023-03-22T13:56:58.723Z,15.32
2023-03-22T13:59:30.070Z,15.33
2023-03-22T14:02:26.434Z,15.32
2023-03-22T14:04:59.012Z,15.17
2023-03-22T14:07:35.747Z,15.08
2023-03-22T14:10:17.073Z,15.00
2023-03-22T14:12:48.787Z,14.86
2023-03-22T14:15:29.038Z,14.86
2023-03-22T14:18:03.515Z,14.83
2023-03-22T14:20:35.760Z,14.77
